createdAt,value
2022-09-25T10:55:31.390Z,14.90
2022-09-25T10:58:49.117Z,15.00
2022-09-25T11:01:17.249Z,15.00
2022-09-25T11:03:56.999Z,15.10
2022-09-25T11:06:33.624Z,15.20
2022-09-25T11:09:00.588Z,15.30
2022-09-25T11:11:28.831Z,15.50
2022-09-25T11:14:00.343Z,15.50
2022-09-25T11:16:46.650Z,15.50
2022-09-25T11:19:21.251Z,15.60
2022-09-25T11:22:14.431Z,15.60
2022-09-25T11:24:57.291Z,15.70
2022-09-25T11:27:32.618Z,15.60
2022-09-25T11:33:23.326Z,15.50
2022-09-25T11:36:12.468Z,15.50
2022-09-25T11:39:22.670Z,15.60
2022-09-25T11:41:56.280Z,15.60
2022-09-25T11:44:42.231Z,15.50
2022-09-25T11:47:24.472Z,15.50
2022-09-25T11:49:54.445Z,15.60
2022-09-25T11:52:47.566Z,15.60
2022-09-25T11:55:43.241Z,15.70
2022-09-25T11:59:04.891Z,15.80
2022-09-25T12:01:41.982Z,15.90
2022-09-25T12:04:12.964Z,15.90
2022-09-25T12:07:27.978Z,16.00
2022-09-25T12:10:12.376Z,16.00
2022-09-25T12:12:52.461Z,16.00
2022-09-25T12:15:47.672Z,16.10
2022-09-25T12:18:44.185Z,16.00
2022-09-25T12:21:19.677Z,16.00
2022-09-25T12:24:01.963Z,16.00
2022-09-25T12:26:54.558Z,16.20
2022-09-25T12:29:45.192Z,16.30
2022-09-25T12:32:36.835Z,16.30
2022-09-25T12:35:13.150Z,16.40
2022-09-25T12:37:46.722Z,16.30
2022-09-25T12:40:32.544Z,16.50
2022-09-25T12:43:07.901Z,16.60
2022-09-25T12:45:43.494Z,16.60
2022-09-25T12:48:34.427Z,16.70
2022-09-25T12:51:25.771Z,16.80
2022-09-25T14:55:02.081Z,19.60
2022-09-25T15:21:21.295Z,19.40
2022-09-25T15:23:54.452Z,19.30
